createdAt,value
2019-05-06T00:02:25.095Z,68.20
2019-05-06T00:04:54.059Z,69.47
2019-05-06T00:07:20.144Z,70.19
2019-05-06T00:09:46.778Z,70.64
2019-05-06T00:12:14.545Z,71.71
2019-05-06T00:14:43.166Z,72.63
2019-05-06T00:17:09.966Z,72.51
2019-05-06T00:19:36.512Z,73.43
2019-05-06T00:22:04.748Z,73.19
2019-05-06T00:24:36.184Z,72.69
2019-05-06T00:27:24.720Z,71.81
2019-05-06T00:29:51.815Z,72.25
2019-05-06T00:32:18.513Z,72.26
2019-05-06T00:34:45.186Z,71.41
2019-05-06T00:37:11.798Z,71.10
2019-05-06T00:39:44.391Z,70.52
2019-05-06T00:42:26.619Z,70.29
2019-05-06T00:44:53.720Z,70.72
2019-05-06T00:47:20.583Z,70.16
2019-05-06T00:49:47.277Z,70.70
2019-05-06T00:52:13.957Z,71.06
2019-05-06T00:54:40.945Z,70.35
2019-05-06T00:57:07.810Z,70.69
2019-05-06T00:59:34.622Z,70.31
2019-05-06T01:02:01.736Z,70.01
2019-05-06T01:04:28.334Z,69.95
2019-05-06T01:06:55.027Z,69.76
2019-05-06T01:09:23.465Z,69.70
2019-05-06T01:11:54.066Z,69.52
2019-05-06T01:14:23.537Z,69.76
2019-05-06T01:16:50.420Z,69.81
2019-05-06T01:19:17.371Z,68.99
2019-05-06T01:21:44.709Z,69.01
2019-05-06T01:24:11.785Z,69.36
2019-05-06T01:26:39.838Z,69.12
2019-05-06T01:29:08.533Z,69.69
2019-05-06T01:31:42.923Z,68.01
2019-05-06T01:34:04.757Z,67.76
2019-05-06T01:36:31.388Z,68.56
2019-05-06T01:39:16.386Z,67.95
2019-05-06T01:41:54.255Z,68.89
2019-05-06T01:44:21.087Z,67.41
2019-05-06T01:46:47.781Z,66.34
2019-05-06T01:49:14.457Z,65.15
2019-05-06T01:51:41.099Z,63.56
2019-05-06T01:54:08.973Z,66.65
2019-05-06T01:56:35.454Z,67.07
2019-05-06T01:59:04.322Z,66.77
2019-05-06T02:01:31.061Z,67.21
2019-05-06T02:03:58.000Z,67.59
2019-05-06T02:06:25.067Z,66.97
2019-05-06T02:08:54.015Z,66.06
2019-05-06T02:11:20.853Z,65.94
2019-05-06T02:13:47.503Z,65.32
2019-05-06T02:16:14.791Z,64.48
2019-05-06T02:18:42.026Z,61.94
2019-05-06T02:21:08.532Z,61.72
2019-05-06T02:23:37.272Z,61.66
2019-05-06T02:26:04.922Z,61.05
2019-05-06T02:28:34.485Z,62.78
2019-05-06T02:31:19.897Z,61.46
2019-05-06T02:33:55.479Z,63.43
2019-05-06T02:36:39.462Z,61.99
2019-05-06T02:39:06.528Z,63.30
2019-05-06T02:41:33.828Z,64.53
2019-05-06T02:44:03.660Z,65.99
2019-05-06T02:46:33.490Z,65.63
2019-05-06T02:49:03.798Z,67.22
2019-05-06T02:51:33.133Z,66.15
2019-05-06T02:53:58.919Z,66.29
2019-05-06T02:56:26.734Z,64.41
2019-05-06T02:58:53.739Z,64.90
2019-05-06T03:01:23.274Z,64.66
2019-05-06T03:03:49.316Z,66.07
2019-05-06T03:06:16.185Z,66.65
2019-05-06T03:08:43.578Z,65.35
2019-05-06T03:11:13.531Z,64.60
2019-05-06T03:13:39.737Z,65.01
2019-05-06T03:16:06.342Z,64.04
2019-05-06T03:18:34.200Z,63.91
2019-05-06T03:21:19.436Z,64.33
2019-05-06T03:23:53.945Z,64.59
2019-05-06T03:26:23.548Z,64.26
2019-05-06T03:28:49.842Z,62.79
2019-05-06T03:31:17.265Z,62.92
2019-05-06T03:34:02.044Z,63.14
2019-05-06T03:36:18.728Z,60.43
2019-05-06T03:38:43.260Z,61.89
2019-05-06T03:41:09.586Z,62.85
2019-05-06T03:43:36.392Z,63.30
2019-05-06T03:46:23.324Z,62.52
2019-05-06T03:48:59.024Z,61.85
2019-05-06T03:51:25.794Z,62.33
2019-05-06T03:53:54.086Z,63.30
2019-05-06T03:56:23.797Z,61.98
2019-05-06T03:58:53.352Z,62.08
2019-05-06T04:01:23.644Z,62.12
2019-05-06T04:03:53.769Z,62.23
2019-05-06T04:06:18.374Z,62.89
2019-05-06T04:08:47.418Z,60.88
2019-05-06T04:11:16.474Z,61.42
2019-05-06T04:13:46.592Z,60.86
2019-05-06T04:16:15.426Z,61.25
2019-05-06T04:19:04.094Z,60.60
2019-05-06T04:21:48.842Z,60.43
2019-05-06T04:24:18.792Z,60.01
2019-05-06T04:26:46.484Z,60.70
2019-05-06T04:29:13.727Z,60.14
2019-05-06T04:31:43.344Z,63.80
2019-05-06T04:34:14.531Z,61.50
2019-05-06T04:36:37.765Z,60.77
2019-05-06T04:39:05.281Z,59.13
2019-05-06T04:41:34.150Z,60.10
2019-05-06T04:44:02.865Z,60.24
2019-05-06T04:46:29.909Z,58.16
2019-05-06T04:48:56.641Z,58.52
2019-05-06T04:51:24.771Z,59.65
2019-05-06T04:53:53.691Z,60.30
2019-05-06T04:56:23.680Z,61.18
2019-05-06T04:58:49.970Z,60.09
2019-05-06T05:01:16.799Z,59.00
2019-05-06T05:03:43.628Z,58.79
2019-05-06T05:06:10.329Z,57.50
2019-05-06T05:08:37.150Z,58.47
2019-05-06T05:11:07.955Z,58.57
2019-05-06T05:13:36.819Z,57.57
2019-05-06T05:16:22.130Z,57.84
2019-05-06T05:18:56.781Z,58.37
2019-05-06T05:21:23.344Z,58.63
2019-05-06T05:23:52.256Z,57.55
2019-05-06T05:26:19.008Z,57.12
2019-05-06T05:28:45.842Z,57.31
2019-05-06T05:31:12.671Z,55.31
2019-05-06T05:33:39.380Z,55.65
2019-05-06T05:36:06.268Z,55.12
2019-05-06T05:38:33.146Z,56.42
2019-05-06T05:41:00.335Z,55.56
2019-05-06T05:43:33.007Z,56.06
2019-05-06T05:45:59.766Z,54.47
2019-05-06T05:48:45.605Z,54.06
2019-05-06T05:51:12.793Z,54.19
2019-05-06T05:53:42.479Z,54.28
2019-05-06T05:56:08.817Z,54.17
2019-05-06T05:58:35.654Z,54.20
2019-05-06T06:01:04.202Z,53.99
2019-05-06T06:03:32.426Z,52.89
2019-05-06T06:05:59.373Z,55.00
2019-05-06T06:08:26.337Z,53.22
2019-05-06T06:10:57.837Z,53.08
2019-05-06T06:13:24.642Z,54.58
2019-05-06T06:15:52.121Z,52.47
2019-05-06T06:18:22.433Z,54.64
2019-05-06T06:20:52.800Z,51.93
2019-05-06T06:23:23.078Z,51.72
2019-05-06T06:25:49.948Z,51.95
2019-05-06T06:28:16.624Z,51.00
2019-05-06T06:31:03.011Z,51.30
2019-05-06T06:33:30.049Z,51.81
2019-05-06T06:36:06.161Z,53.53
2019-05-06T06:38:52.715Z,51.12
2019-05-06T06:41:19.745Z,50.66
2019-05-06T06:43:48.335Z,51.20
2019-05-06T06:46:15.522Z,51.02
2019-05-06T06:48:43.095Z,51.36
2019-05-06T06:51:12.262Z,52.13
2019-05-06T06:53:41.979Z,50.90
2019-05-06T06:56:32.833Z,50.19
2019-05-06T06:59:16.998Z,49.98
2019-05-06T07:02:04.309Z,50.37
2019-05-06T07:04:52.437Z,52.60
2019-05-06T07:07:22.837Z,52.17
2019-05-06T07:09:52.625Z,51.77
2019-05-06T07:12:19.786Z,51.28
2019-05-06T07:14:48.806Z,49.59
2019-05-06T07:17:15.513Z,49.65
2019-05-06T07:19:52.664Z,49.92
2019-05-06T07:22:19.486Z,50.71
2019-05-06T07:24:46.248Z,50.12
2019-05-06T07:27:17.787Z,49.14
2019-05-06T07:29:48.156Z,49.68
2019-05-06T07:32:12.998Z,49.82
2019-05-06T07:34:42.047Z,49.45
2019-05-06T07:37:08.426Z,49.61
2019-05-06T07:39:35.162Z,49.15
2019-05-06T07:42:03.796Z,47.81
2019-05-06T07:44:49.347Z,50.55
2019-05-06T07:47:18.123Z,46.30
2019-05-06T07:49:45.093Z,45.37
2019-05-06T07:52:12.382Z,46.55
2019-05-06T07:54:39.469Z,45.64
2019-05-06T07:57:06.097Z,44.23
2019-05-06T07:59:33.400Z,45.28
2019-05-06T08:02:02.307Z,44.55
2019-05-06T08:04:29.147Z,44.85
2019-05-06T08:06:55.963Z,46.07
2019-05-06T08:09:24.093Z,44.34
2019-05-06T08:11:52.892Z,45.21
2019-05-06T08:14:19.799Z,43.93
2019-05-06T08:16:54.302Z,44.93
2019-05-06T08:19:22.732Z,44.55
2019-05-06T08:21:52.166Z,43.59
2019-05-06T08:24:20.082Z,42.80
2019-05-06T08:26:46.844Z,42.02
2019-05-06T08:29:15.923Z,42.58
2019-05-06T08:31:43.058Z,43.02
2019-05-06T08:34:12.137Z,43.84
2019-05-06T08:36:42.642Z,44.55
2019-05-06T08:39:09.994Z,44.56
2019-05-06T08:41:36.743Z,44.11
2019-05-06T08:44:03.737Z,44.88
2019-05-06T08:46:32.695Z,46.14
2019-05-06T08:49:03.046Z,44.67
2019-05-06T08:51:35.438Z,43.86
2019-05-06T08:54:19.780Z,43.69
2019-05-06T08:56:46.639Z,44.66
2019-05-06T08:59:14.047Z,43.44
2019-05-06T09:01:45.736Z,42.52
2019-05-06T09:04:15.913Z,43.82
2019-05-06T09:06:43.138Z,44.97
2019-05-06T09:09:12.797Z,42.83
2019-05-06T09:11:39.328Z,43.13
2019-05-06T09:14:09.695Z,42.48
2019-05-06T09:16:35.564Z,41.87
2019-05-06T09:19:04.461Z,41.47
2019-05-06T09:21:33.530Z,41.75
2019-05-06T09:24:02.271Z,40.72
2019-05-06T09:26:40.051Z,40.84
2019-05-06T09:29:12.812Z,39.21
2019-05-06T09:31:42.726Z,39.02
2019-05-06T09:34:13.053Z,39.46
2019-05-06T09:36:51.326Z,39.00
2019-05-06T09:39:13.000Z,39.12
2019-05-06T09:41:39.868Z,38.99
2019-05-06T09:44:06.875Z,39.67
2019-05-06T09:46:33.548Z,38.61
2019-05-06T09:49:03.313Z,38.39
2019-05-06T09:51:32.359Z,39.24
2019-05-06T09:54:03.790Z,39.10
2019-05-06T09:56:33.467Z,38.75
2019-05-06T09:59:02.226Z,38.54
2019-05-06T10:01:29.199Z,38.45
2019-05-06T10:03:56.088Z,38.66
2019-05-06T10:06:22.954Z,39.75
2019-05-06T10:08:49.752Z,40.71
2019-05-06T10:11:16.372Z,39.98
2019-05-06T10:13:45.201Z,40.18
2019-05-06T10:16:12.998Z,41.54
2019-05-06T10:18:39.988Z,40.16
2019-05-06T10:21:07.285Z,40.69
2019-05-06T10:23:34.079Z,39.19
2019-05-06T10:26:04.279Z,39.51
2019-05-06T10:28:34.195Z,40.01
2019-05-06T10:31:02.138Z,40.43
2019-05-06T10:33:33.175Z,41.88
2019-05-06T10:36:03.783Z,39.86
2019-05-06T10:38:55.918Z,40.19
2019-05-06T10:41:32.809Z,39.70
2019-05-06T10:44:42.843Z,39.77
2019-05-06T10:47:08.890Z,40.29
2019-05-06T10:49:36.812Z,40.80
2019-05-06T10:52:17.235Z,40.15
2019-05-06T10:54:43.677Z,40.62
2019-05-06T10:57:12.607Z,41.10
2019-05-06T10:59:39.571Z,41.65
2019-05-06T11:02:06.532Z,41.61
2019-05-06T11:04:33.290Z,41.86
2019-05-06T11:07:00.103Z,41.06
2019-05-06T11:09:26.835Z,42.58
2019-05-06T11:11:55.819Z,43.14
2019-05-06T11:14:22.880Z,40.36
2019-05-06T11:16:50.227Z,40.83
2019-05-06T11:19:16.771Z,41.10
2019-05-06T11:21:45.359Z,41.15
2019-05-06T11:24:12.403Z,40.91
2019-05-06T11:26:39.422Z,40.08
2019-05-06T11:29:13.873Z,39.89
2019-05-06T11:32:02.389Z,40.47
2019-05-06T11:34:43.130Z,40.90
2019-05-06T11:37:22.978Z,41.56
2019-05-06T11:39:49.498Z,41.57
2019-05-06T11:42:27.546Z,40.61
2019-05-06T11:44:45.046Z,40.92
2019-05-06T11:47:12.473Z,42.04
2019-05-06T11:49:39.444Z,41.66
2019-05-06T11:52:06.150Z,40.72
2019-05-06T11:54:33.759Z,39.83
2019-05-06T11:57:02.910Z,40.00
2019-05-06T11:59:30.231Z,40.10
2019-05-06T12:02:04.923Z,40.64
2019-05-06T12:04:32.916Z,40.42
2019-05-06T12:07:10.229Z,40.42
2019-05-06T12:09:33.059Z,39.38
2019-05-06T12:12:03.066Z,40.55
2019-05-06T12:14:29.451Z,39.29
2019-05-06T12:16:56.211Z,39.07
2019-05-06T12:19:23.000Z,39.92
2019-05-06T12:21:49.841Z,38.75
2019-05-06T12:24:16.575Z,36.70
2019-05-06T12:26:43.224Z,36.75
2019-05-06T12:29:09.879Z,36.27
2019-05-06T12:31:36.721Z,35.18
2019-05-06T12:34:03.650Z,35.65
2019-05-06T12:36:32.301Z,36.09
2019-05-06T12:39:17.588Z,37.47
2019-05-06T12:41:45.109Z,36.09
2019-05-06T12:44:13.092Z,38.44
2019-05-06T12:46:46.007Z,37.61
2019-05-06T12:49:12.936Z,38.33
2019-05-06T12:51:39.741Z,37.79
2019-05-06T12:54:06.522Z,37.84
2019-05-06T12:56:33.129Z,37.80
2019-05-06T12:59:02.089Z,36.61
2019-05-06T13:01:29.774Z,36.46
2019-05-06T13:03:57.720Z,37.32
2019-05-06T13:06:26.570Z,37.55
2019-05-06T13:09:01.121Z,37.33
2019-05-06T13:11:22.115Z,37.34
2019-05-06T13:13:57.476Z,37.25
2019-05-06T13:16:19.288Z,37.65
2019-05-06T13:18:51.416Z,37.58
2019-05-06T13:21:16.187Z,37.63
2019-05-06T13:23:45.036Z,37.88
2019-05-06T13:26:12.831Z,39.50
2019-05-06T13:28:42.659Z,38.94
2019-05-06T13:31:17.324Z,38.42
2019-05-06T13:33:54.507Z,38.33
2019-05-06T13:36:22.595Z,38.41
2019-05-06T13:38:52.191Z,38.76
2019-05-06T13:41:18.416Z,37.46
2019-05-06T13:43:49.701Z,37.78
2019-05-06T13:46:18.251Z,37.46
2019-05-06T13:48:47.123Z,37.96
2019-05-06T13:51:27.958Z,37.89
2019-05-06T13:53:54.966Z,37.19
2019-05-06T13:56:21.693Z,37.01
2019-05-06T13:58:48.444Z,37.11
2019-05-06T14:01:16.983Z,36.63
2019-05-06T14:03:43.707Z,35.90
2019-05-06T14:06:12.270Z,36.02
2019-05-06T14:08:39.187Z,36.03
2019-05-06T14:11:05.958Z,36.29
2019-05-06T14:13:34.108Z,36.46
2019-05-06T14:16:00.720Z,36.00
2019-05-06T14:18:27.527Z,36.48
2019-05-06T14:20:55.954Z,35.47
2019-05-06T14:23:22.913Z,35.65
2019-05-06T14:26:08.212Z,35.44
2019-05-06T14:28:34.881Z,35.71
2019-05-06T14:31:03.440Z,35.31
2019-05-06T14:33:32.160Z,35.50
2019-05-06T14:35:58.774Z,36.45
2019-05-06T14:38:25.494Z,36.00
2019-05-06T14:41:08.071Z,38.41
2019-05-06T14:43:35.011Z,35.58
2019-05-06T14:46:02.028Z,36.44
2019-05-06T14:48:29.063Z,36.04
2019-05-06T14:50:57.335Z,37.02
2019-05-06T14:53:24.411Z,38.04
2019-05-06T14:55:52.989Z,36.26
2019-05-06T14:58:20.102Z,37.61
2019-05-06T15:00:46.556Z,37.23
2019-05-06T15:03:14.474Z,35.54
2019-05-06T15:05:42.751Z,36.40
2019-05-06T15:08:09.407Z,37.74
2019-05-06T15:10:35.978Z,36.33
2019-05-06T15:13:02.920Z,36.55
2019-05-06T15:15:29.738Z,36.47
2019-05-06T15:17:56.511Z,38.84
2019-05-06T15:20:23.690Z,38.28
2019-05-06T15:22:52.748Z,37.29
2019-05-06T15:25:19.235Z,38.07
2019-05-06T15:27:45.925Z,36.49
2019-05-06T15:30:15.669Z,36.13
2019-05-06T15:32:42.665Z,36.82
2019-05-06T15:35:17.653Z,38.05
2019-05-06T15:37:46.187Z,35.80
2019-05-06T15:40:13.867Z,35.85
2019-05-06T15:42:42.515Z,37.85
2019-05-06T15:45:09.748Z,35.85
2019-05-06T15:47:36.523Z,36.72
2019-05-06T15:50:04.213Z,36.78
2019-05-06T15:52:32.467Z,36.38
2019-05-06T15:54:59.607Z,36.07
2019-05-06T15:57:26.240Z,36.66
2019-05-06T15:59:53.271Z,35.96
2019-05-06T16:02:20.235Z,36.31
2019-05-06T16:04:47.000Z,36.47
2019-05-06T16:07:15.276Z,35.61
2019-05-06T16:09:42.885Z,36.88
2019-05-06T16:12:12.616Z,36.18
2019-05-06T16:14:42.494Z,36.13
2019-05-06T16:17:09.215Z,37.05
2019-05-06T16:19:35.875Z,35.17
2019-05-06T16:22:04.090Z,37.21
2019-05-06T16:24:35.159Z,37.66
2019-05-06T16:27:03.111Z,37.19
2019-05-06T16:29:35.845Z,36.79
2019-05-06T16:32:04.759Z,37.00
2019-05-06T16:34:32.344Z,36.71
2019-05-06T16:37:01.904Z,36.54
2019-05-06T16:39:28.964Z,37.05
2019-05-06T16:41:55.908Z,37.63
2019-05-06T16:44:22.863Z,37.92
2019-05-06T16:46:52.103Z,38.51
2019-05-06T16:49:19.082Z,39.20
2019-05-06T16:51:47.128Z,36.30
2019-05-06T16:54:13.755Z,36.90
2019-05-06T16:56:46.185Z,37.50
2019-05-06T16:59:13.077Z,38.05
2019-05-06T17:01:42.615Z,37.83
2019-05-06T17:04:17.330Z,38.16
2019-05-06T17:06:46.011Z,38.02
2019-05-06T17:09:20.729Z,38.74
2019-05-06T17:11:42.687Z,38.54
2019-05-06T17:14:12.121Z,38.67
2019-05-06T17:16:38.200Z,38.74
2019-05-06T17:19:06.087Z,38.62
2019-05-06T17:21:33.349Z,39.05
2019-05-06T17:24:02.193Z,38.98
2019-05-06T17:26:28.797Z,38.63
2019-05-06T17:29:10.547Z,38.90
2019-05-06T17:31:39.907Z,39.82
2019-05-06T17:34:17.568Z,39.15
2019-05-06T17:36:44.042Z,39.58
2019-05-06T17:39:11.633Z,40.01
2019-05-06T17:41:46.024Z,40.58
2019-05-06T17:44:11.978Z,40.60
2019-05-06T17:46:43.422Z,41.09
2019-05-06T17:49:14.918Z,40.41
2019-05-06T17:51:43.780Z,40.32
2019-05-06T17:54:12.450Z,40.96
2019-05-06T17:56:41.921Z,40.76
2019-05-06T17:59:08.888Z,40.26
2019-05-06T18:01:37.605Z,40.30
2019-05-06T18:04:04.689Z,40.50
2019-05-06T18:06:33.029Z,40.76
2019-05-06T18:09:05.167Z,39.69
2019-05-06T18:11:33.183Z,39.63
2019-05-06T18:14:00.509Z,38.55
2019-05-06T18:16:27.383Z,39.38
2019-05-06T18:18:54.322Z,40.96
2019-05-06T18:21:23.024Z,40.75
2019-05-06T18:23:52.139Z,39.90
2019-05-06T18:26:18.475Z,39.42
2019-05-06T18:28:45.194Z,39.10
2019-05-06T18:31:12.562Z,38.84
2019-05-06T18:33:43.094Z,39.45
2019-05-06T18:36:10.327Z,39.67
2019-05-06T18:38:38.867Z,40.00
2019-05-06T18:41:05.427Z,40.02
2019-05-06T18:43:33.296Z,39.82
2019-05-06T18:46:02.744Z,40.41
2019-05-06T18:48:31.618Z,42.23
2019-05-06T18:50:57.898Z,40.93
2019-05-06T18:53:28.155Z,40.65
2019-05-06T18:55:56.580Z,42.58
2019-05-06T18:58:23.438Z,42.37
2019-05-06T19:00:50.211Z,42.77
2019-05-06T19:03:16.940Z,41.18
2019-05-06T19:05:45.300Z,40.90
2019-05-06T19:08:29.694Z,41.60
2019-05-06T19:10:56.692Z,39.91
2019-05-06T19:13:24.812Z,39.24
2019-05-06T19:15:52.658Z,39.48
2019-05-06T19:18:22.498Z,40.41
2019-05-06T19:20:50.332Z,40.69
2019-05-06T19:23:17.178Z,40.50
2019-05-06T19:25:45.432Z,40.08
2019-05-06T19:28:14.143Z,41.00
2019-05-06T19:30:41.963Z,40.38
2019-05-06T19:33:08.643Z,41.48
2019-05-06T19:35:37.108Z,41.95
2019-05-06T19:38:05.245Z,42.12
2019-05-06T19:40:32.507Z,42.73
2019-05-06T19:42:59.384Z,43.41
2019-05-06T19:45:26.211Z,44.98
2019-05-06T19:47:52.821Z,44.47
2019-05-06T19:50:23.529Z,44.33
2019-05-06T19:52:48.343Z,44.53
2019-05-06T19:55:16.426Z,46.11
2019-05-06T19:57:43.243Z,45.10
2019-05-06T20:00:10.719Z,45.99
2019-05-06T20:02:37.534Z,45.91
2019-05-06T20:05:17.294Z,44.60
2019-05-06T20:07:49.175Z,42.91
2019-05-06T20:10:17.959Z,43.35
2019-05-06T20:12:59.430Z,42.01
2019-05-06T20:15:32.468Z,41.80
2019-05-06T20:17:59.218Z,39.21
2019-05-06T20:20:25.971Z,39.93
2019-05-06T20:22:52.670Z,40.43
2019-05-06T20:25:19.540Z,40.75
2019-05-06T20:27:46.114Z,40.74
2019-05-06T20:30:13.712Z,41.21
2019-05-06T20:32:42.509Z,41.52
2019-05-06T20:35:09.616Z,41.54
2019-05-06T20:37:36.543Z,42.85
2019-05-06T20:40:04.534Z,43.33
2019-05-06T20:42:32.734Z,43.12
2019-05-06T20:44:59.564Z,43.74
2019-05-06T20:47:26.360Z,43.20
2019-05-06T20:49:53.100Z,43.31
2019-05-06T20:52:20.261Z,43.40
2019-05-06T20:54:47.138Z,43.54
2019-05-06T20:57:13.922Z,43.62
2019-05-06T20:59:41.957Z,45.04
2019-05-06T21:02:09.138Z,45.02
2019-05-06T21:04:35.959Z,45.08
2019-05-06T21:07:03.186Z,45.54
2019-05-06T21:09:31.998Z,45.26
2019-05-06T21:11:58.740Z,44.77
2019-05-06T21:14:25.817Z,45.90
2019-05-06T21:16:52.527Z,45.90
2019-05-06T21:19:19.085Z,46.43
2019-05-06T21:21:45.930Z,47.40
2019-05-06T21:24:13.116Z,45.52
2019-05-06T21:26:42.306Z,46.39
2019-05-06T21:29:08.627Z,46.13
2019-05-06T21:31:35.311Z,46.48
2019-05-06T21:34:02.032Z,47.26
2019-05-06T21:36:28.748Z,46.65
2019-05-06T21:38:55.444Z,46.55
2019-05-06T21:41:23.157Z,46.60
2019-05-06T21:43:50.400Z,46.90
2019-05-06T21:46:17.795Z,46.49
2019-05-06T21:48:44.523Z,46.51
2019-05-06T21:51:12.892Z,47.18
2019-05-06T21:53:39.806Z,46.96
2019-05-06T21:56:07.575Z,46.83
2019-05-06T21:58:35.782Z,47.04
2019-05-06T22:01:04.959Z,47.64
2019-05-06T22:03:32.750Z,48.54
2019-05-06T22:06:02.074Z,47.67
2019-05-06T22:08:30.149Z,47.26
2019-05-06T22:11:00.240Z,48.06
2019-05-06T22:13:27.192Z,47.87
2019-05-06T22:15:54.473Z,47.70
2019-05-06T22:18:22.893Z,47.56
2019-05-06T22:21:07.901Z,47.47
2019-05-06T22:23:49.877Z,47.59
2019-05-06T22:26:16.818Z,47.99
2019-05-06T22:28:43.595Z,48.42
2019-05-06T22:31:10.335Z,48.71
2019-05-06T22:33:38.661Z,48.45
2019-05-06T22:36:06.866Z,48.78
2019-05-06T22:38:33.522Z,48.64
2019-05-06T22:41:02.328Z,49.16
2019-05-06T22:43:28.906Z,48.81
2019-05-06T22:45:55.829Z,49.11
2019-05-06T22:48:22.341Z,48.85
2019-05-06T22:50:49.014Z,48.94
2019-05-06T22:53:17.297Z,48.45
2019-05-06T22:55:44.054Z,48.67
2019-05-06T22:58:11.975Z,49.40
2019-05-06T23:00:42.528Z,49.14
2019-05-06T23:03:12.330Z,49.20
2019-05-06T23:05:39.185Z,49.56
2019-05-06T23:08:05.971Z,49.39
2019-05-06T23:10:33.652Z,48.96
2019-05-06T23:13:02.977Z,49.10
2019-05-06T23:15:29.373Z,49.16
2019-05-06T23:17:55.954Z,48.98
2019-05-06T23:20:24.471Z,49.32
2019-05-06T23:22:51.317Z,49.88
2019-05-06T23:25:18.222Z,49.24
2019-05-06T23:27:44.857Z,49.60
2019-05-06T23:30:12.749Z,50.14
2019-05-06T23:32:39.684Z,49.55
2019-05-06T23:35:06.616Z,49.27
2019-05-06T23:38:29.373Z,49.95
2019-05-06T23:41:52.917Z,50.37
2019-05-06T23:45:15.964Z,50.21
2019-05-06T23:48:38.971Z,49.65
2019-05-06T23:52:02.833Z,50.12
2019-05-06T23:55:25.615Z,50.42
2019-05-06T23:57:52.621Z,50.08
